PABR METAR and TAF weather

Enter ICAO airport designator
Station Type Date Time Source
PABR METAR 2022/06/28 08:53 UTC NOAA

PABR 280853Z AUTO 24011KT 10SM FEW002 SCT008 OVC020 05/04 A2998 RMK AO2 SLP152 60000 T00500039 401830050 53009 TSNO $


Station Type Date Time Source
PABR Decoded METAR 2022/06/28 08:53 UTC NOAA

POST ROGERS MEMORIAL AIRPORT, AK, United States (PABR) 71-17N 156-46W 10M
Jun 28, 2022 - 04:53 AM EDT / 2022.06.28 0853 UTC
Wind: from the WSW (240 degrees) at 13 MPH (11 KT):0
Visibility: 10 mile(s):0
Sky conditions: overcast
Temperature: 41.0 F (5.0 C)
Dew Point: 39.0 F (3.9 C)
Relative Humidity: 92%
Pressure (altimeter): 29.98 in. Hg (1015 hPa)
Pressure tendency: 0.03 inches (0.9 hPa) higher than three hours ago
ob: PABR 280853Z AUTO 24011KT 10SM FEW002 SCT008 OVC020 05/04 A2998 RMK AO2 SLP152 60000 T00500039 401830050 53009 TSNO
cycle: 9

Station Type Date Time Source
PABR TAF 2022/06/28 06:42 UTC NOAA

TAF PABR 280539Z 2806/2906 24011KT P6SM VCSH BKN015 OVC040
FM280900 21010KT 5SM -RA BR OVC025
FM281600 24008KT P6SM VCSH OVC020
FM282100 15008KT P6SM OVC025

Example: see airport list